Time;durP1;ratioP1;P1;durP2;ratioP2;P2;SDS_P1;SDS_P2;PMS_P1;PMS_P2;Temp;Humidity;BMP_temperature;BMP_pressure;BME280_temperature;BME280_humidity;BME280_pressure;Samples;Min_cycle;Max_cycle;Signal;HPM_P1;HPM_P2
2022/05/12 00:00:35;;;;;;;7.43;1.83;;;11.80;99.90;;;;;;4966111;28;20039;-78
2022/05/12 00:03:02;;;;;;;8.75;2.00;;;11.70;99.90;;;;;;4980943;28;20039;-78
2022/05/12 00:05:28;;;;;;;4.40;1.45;;;11.70;99.90;;;;;;4969771;28;20516;-78
2022/05/12 00:07:54;;;;;;;9.60;1.50;;;11.60;99.90;;;;;;4980764;28;20035;-78
2022/05/12 00:10:23;;;;;;;9.55;1.90;;;11.60;99.90;;;;;;4983801;28;20051;-78
2022/05/12 00:12:49;;;;;;;6.82;1.60;;;11.50;99.90;;;;;;4969075;28;20046;-78
2022/05/12 00:15:20;;;;;;;7.85;1.90;;;11.50;99.90;;;;;;4964865;28;20043;-78
2022/05/12 00:17:45;;;;;;;7.75;2.17;;;11.50;99.90;;;;;;4982288;28;20039;-77
2022/05/12 00:20:13;;;;;;;7.47;1.70;;;11.40;99.90;;;;;;4967735;28;20045;-77
2022/05/12 00:22:38;;;;;;;5.88;1.60;;;11.40;99.90;;;;;;4967274;28;21256;-78
2022/05/12 00:25:08;;;;;;;4.05;1.30;;;11.30;99.90;;;;;;4983111;28;20050;-77
2022/05/12 00:27:34;;;;;;;9.68;1.85;;;11.40;99.90;;;;;;4961021;28;20035;-77
2022/05/12 00:29:59;;;;;;;6.90;1.63;;;11.30;99.90;;;;;;4965692;28;20035;-77
2022/05/12 00:32:25;;;;;;;3.67;1.40;;;11.30;99.90;;;;;;4965448;28;20045;-77
2022/05/12 00:34:50;;;;;;;5.43;2.00;;;11.20;99.90;;;;;;4981404;28;20062;-77
2022/05/12 00:37:16;;;;;;;3.78;1.40;;;11.20;99.90;;;;;;4965052;28;20051;-77
2022/05/12 00:39:42;;;;;;;4.97;1.35;;;11.20;99.90;;;;;;4963937;28;20501;-77
2022/05/12 00:42:07;;;;;;;4.05;1.50;;;11.10;99.90;;;;;;4966938;28;20054;-77
2022/05/12 00:44:33;;;;;;;4.72;1.30;;;11.10;99.90;;;;;;4963455;28;20047;-77
2022/05/12 00:46:59;;;;;;;5.03;1.30;;;11.10;99.90;;;;;;4966748;28;20039;-77
2022/05/12 00:49:33;;;;;;;5.90;1.52;;;11.00;99.90;;;;;;4965945;28;20034;-77
2022/05/12 00:52:06;;;;;;;5.32;1.52;;;11.00;99.90;;;;;;4970235;28;20046;-76
2022/05/12 00:54:42;;;;;;;6.57;1.52;;;11.00;99.90;;;;;;4967338;28;20050;-77
2022/05/12 00:57:10;;;;;;;4.72;1.75;;;11.00;99.90;;;;;;4982018;28;20042;-77
2022/05/12 00:59:36;;;;;;;3.58;1.20;;;10.90;99.90;;;;;;4967027;28;20039;-77
2022/05/12 01:02:07;;;;;;;6.93;1.40;;;10.90;99.90;;;;;;4965125;28;20240;-77
2022/05/12 01:04:34;;;;;;;5.40;1.45;;;10.80;99.90;;;;;;4966685;28;20043;-77
2022/05/12 01:07:00;;;;;;;7.65;1.85;;;10.80;99.90;;;;;;4966672;28;20045;-77
2022/05/12 01:09:27;;;;;;;3.60;1.13;;;10.80;99.90;;;;;;4966448;28;22046;-77
2022/05/12 01:11:54;;;;;;;4.75;1.10;;;10.80;99.90;;;;;;4981722;28;20042;-75
2022/05/12 01:14:20;;;;;;;5.40;1.30;;;10.80;99.90;;;;;;4962802;28;20101;-75
2022/05/12 01:16:53;;;;;;;4.15;1.58;;;10.80;99.90;;;;;;4979213;28;20070;-75
2022/05/12 01:19:23;;;;;;;3.47;1.20;;;10.70;99.90;;;;;;4951047;28;20417;-75
2022/05/12 01:21:50;;;;;;;5.72;1.40;;;10.70;99.90;;;;;;4964368;28;20505;-75
2022/05/12 01:24:18;;;;;;;5.25;1.50;;;10.70;99.90;;;;;;4956552;28;20078;-76
2022/05/12 01:26:45;;;;;;;4.03;1.23;;;10.60;99.90;;;;;;4970314;28;21838;-76
2022/05/12 01:29:18;;;;;;;7.88;1.50;;;10.60;99.90;;;;;;4959509;28;20041;-75
2022/05/12 01:31:56;;;;;;;4.82;1.20;;;10.60;99.90;;;;;;4957876;28;20552;-76
2022/05/12 01:34:23;;;;;;;7.93;1.58;;;10.60;99.90;;;;;;4934472;28;20054;-76
2022/05/12 01:36:49;;;;;;;5.82;1.50;;;10.50;99.90;;;;;;4966492;28;20047;-76
2022/05/12 01:39:15;;;;;;;4.90;1.55;;;10.50;99.90;;;;;;4964418;28;20163;-76
2022/05/12 01:41:40;;;;;;;5.50;1.60;;;10.40;99.90;;;;;;4964077;28;20113;-76
2022/05/12 01:44:06;;;;;;;6.45;1.50;;;10.40;99.90;;;;;;4966331;28;20053;-76
2022/05/12 01:46:32;;;;;;;4.68;1.38;;;10.40;99.90;;;;;;4963492;28;20532;-76
2022/05/12 01:48:59;;;;;;;4.65;1.45;;;10.40;99.90;;;;;;4964817;28;20129;-75
2022/05/12 01:51:26;;;;;;;5.22;1.52;;;10.30;99.90;;;;;;4965573;28;20038;-75
2022/05/12 01:53:51;;;;;;;6.45;2.00;;;10.30;99.90;;;;;;4966312;28;20569;-75
2022/05/12 01:56:17;;;;;;;4.90;1.60;;;10.30;99.90;;;;;;4949636;28;20142;-75
2022/05/12 01:58:42;;;;;;;6.20;1.98;;;10.30;99.90;;;;;;4981104;28;20438;-76
2022/05/12 02:01:08;;;;;;;5.03;1.63;;;10.30;99.90;;;;;;4965154;28;20047;-76
2022/05/12 02:03:34;;;;;;;6.18;2.00;;;10.30;99.90;;;;;;4964233;28;20053;-75
2022/05/12 02:06:01;;;;;;;6.90;2.13;;;10.30;99.90;;;;;;4951004;28;20462;-76
2022/05/12 02:08:30;;;;;;;6.82;2.05;;;10.30;99.90;;;;;;4922186;28;20693;-76
2022/05/12 02:10:56;;;;;;;7.95;2.20;;;10.20;99.90;;;;;;4954103;28;20055;-75
2022/05/12 02:13:25;;;;;;;6.55;2.00;;;10.20;99.90;;;;;;4950643;28;20521;-76
2022/05/12 02:15:52;;;;;;;6.20;1.90;;;10.20;99.90;;;;;;4959334;28;20043;-74
2022/05/12 02:18:20;;;;;;;4.03;1.80;;;10.20;99.90;;;;;;4964098;28;20453;-74
2022/05/12 02:20:46;;;;;;;7.18;2.40;;;10.20;99.90;;;;;;4961693;28;20047;-75
2022/05/12 02:23:12;;;;;;;4.63;1.95;;;10.20;99.90;;;;;;4963817;28;20975;-74
2022/05/12 02:25:37;;;;;;;5.70;2.00;;;10.20;99.90;;;;;;4960614;28;20074;-75
2022/05/12 02:28:03;;;;;;;9.30;2.00;;;10.20;99.90;;;;;;4975873;28;20090;-74
2022/05/12 02:30:30;;;;;;;3.00;1.83;;;10.20;99.90;;;;;;4963730;28;20038;-75
2022/05/12 02:32:59;;;;;;;6.10;2.13;;;10.20;99.90;;;;;;4970938;28;20077;-75
2022/05/12 02:35:30;;;;;;;7.20;2.20;;;10.20;99.90;;;;;;4944713;28;20070;-75
2022/05/12 02:37:57;;;;;;;7.30;2.33;;;10.10;99.90;;;;;;4969772;28;20151;-74
2022/05/12 02:40:25;;;;;;;6.40;2.17;;;10.20;99.90;;;;;;4965215;28;20069;-74
2022/05/12 02:42:51;;;;;;;5.28;2.47;;;10.20;99.90;;;;;;4971239;28;20395;-75
2022/05/12 02:45:18;;;;;;;5.25;2.17;;;10.10;99.90;;;;;;4955398;28;20090;-75
2022/05/12 02:47:44;;;;;;;5.95;2.00;;;10.10;99.90;;;;;;4969359;28;20754;-76
2022/05/12 02:50:12;;;;;;;10.57;2.45;;;10.00;99.90;;;;;;4967432;28;20040;-74
2022/05/12 02:52:38;;;;;;;7.05;2.70;;;10.00;99.90;;;;;;4966228;28;20078;-76
2022/05/12 02:55:04;;;;;;;6.30;2.78;;;10.00;99.90;;;;;;4955912;28;20508;-74
2022/05/12 02:57:30;;;;;;;8.90;2.78;;;10.00;99.90;;;;;;4971120;28;20436;-75
2022/05/12 02:59:55;;;;;;;9.48;2.40;;;10.00;99.90;;;;;;4965052;28;20035;-75
2022/05/12 03:02:21;;;;;;;9.45;2.70;;;9.90;99.90;;;;;;4964589;28;20046;-76
2022/05/12 03:04:47;;;;;;;10.73;2.90;;;9.90;99.90;;;;;;4966922;28;20046;-75
2022/05/12 03:07:12;;;;;;;8.38;2.92;;;9.90;99.90;;;;;;4970475;28;20042;-75
2022/05/12 03:09:38;;;;;;;5.45;2.63;;;9.90;99.90;;;;;;4968367;28;20374;-74
2022/05/12 03:12:04;;;;;;;9.80;3.03;;;9.90;99.90;;;;;;4970126;28;20035;-75
2022/05/12 03:14:34;;;;;;;12.35;3.15;;;9.90;99.90;;;;;;4967382;28;20057;-76
2022/05/12 03:17:01;;;;;;;9.98;2.80;;;9.90;99.90;;;;;;4948807;28;20039;-74
2022/05/12 03:19:27;;;;;;;12.32;2.85;;;9.90;99.90;;;;;;4966892;28;20042;-74
2022/05/12 03:21:53;;;;;;;12.45;2.90;;;9.90;99.90;;;;;;4964223;28;20042;-75
2022/05/12 03:24:19;;;;;;;12.40;3.08;;;9.90;99.90;;;;;;4964176;28;20045;-74
2022/05/12 03:26:47;;;;;;;11.65;2.80;;;9.90;99.90;;;;;;4962869;28;20069;-74
2022/05/12 03:29:12;;;;;;;12.60;3.10;;;9.90;99.90;;;;;;4963778;28;20382;-74
2022/05/12 03:31:38;;;;;;;9.60;3.08;;;10.00;99.90;;;;;;4958693;28;20058;-75
2022/05/12 03:34:06;;;;;;;12.23;3.20;;;10.00;99.90;;;;;;4962552;28;20038;-75
2022/05/12 03:36:35;;;;;;;16.60;3.78;;;9.90;99.90;;;;;;4964253;28;20410;-74
2022/05/12 03:39:03;;;;;;;14.75;3.92;;;10.00;99.90;;;;;;4969829;28;20039;-74
2022/05/12 03:41:30;;;;;;;10.60;3.75;;;9.90;99.90;;;;;;4971847;28;20045;-75
2022/05/12 03:46:41;;;;;;;10.48;3.25;;;10.00;99.90;;;;;;4971300;28;20042;-75
2022/05/12 03:49:12;;;;;;;10.70;3.15;;;10.00;99.90;;;;;;4953438;28;20044;-75
2022/05/12 03:51:39;;;;;;;9.48;2.70;;;9.90;99.90;;;;;;4967192;28;20086;-75
2022/05/12 03:54:05;;;;;;;9.88;3.40;;;9.80;99.90;;;;;;4958365;28;20039;-75
2022/05/12 03:56:32;;;;;;;11.13;3.30;;;9.80;99.90;;;;;;4968875;28;20058;-75
2022/05/12 03:58:58;;;;;;;11.10;3.05;;;9.70;99.90;;;;;;4966139;28;20413;-76
2022/05/12 04:01:23;;;;;;;13.93;2.90;;;9.60;99.90;;;;;;4962957;28;20042;-76
2022/05/12 04:03:49;;;;;;;11.73;3.50;;;9.60;99.90;;;;;;4961390;28;20103;-76
2022/05/12 04:06:14;;;;;;;8.68;2.92;;;9.60;99.90;;;;;;4963522;28;20558;-76
2022/05/12 04:08:40;;;;;;;10.23;3.55;;;9.60;99.90;;;;;;4963958;28;20035;-76
2022/05/12 04:11:07;;;;;;;14.25;3.40;;;9.60;99.90;;;;;;4962375;28;20376;-76
2022/05/12 04:13:33;;;;;;;14.90;3.55;;;9.50;99.90;;;;;;4963909;28;21131;-76
2022/05/12 04:15:59;;;;;;;13.27;3.58;;;9.40;99.90;;;;;;4980113;28;20609;-76
2022/05/12 04:18:25;;;;;;;14.02;3.70;;;9.50;99.90;;;;;;4965171;28;20051;-76
2022/05/12 04:20:52;;;;;;;9.90;4.00;;;9.40;99.90;;;;;;4965047;28;20132;-75
2022/05/12 04:23:18;;;;;;;15.45;4.03;;;9.40;99.90;;;;;;4967803;28;20050;-76
2022/05/12 04:25:44;;;;;;;13.65;4.25;;;9.40;99.90;;;;;;4967440;28;20078;-76
2022/05/12 04:28:09;;;;;;;10.18;3.80;;;9.50;99.90;;;;;;4966287;28;20047;-76
2022/05/12 04:30:36;;;;;;;12.25;4.40;;;9.50;99.90;;;;;;4980823;28;20046;-76
2022/05/12 04:35:46;;;;;;;15.82;4.20;;;9.60;99.90;;;;;;4964031;28;20968;-76
2022/05/12 04:38:12;;;;;;;19.30;5.05;;;9.60;99.90;;;;;;4965329;28;20046;-76
2022/05/12 04:40:38;;;;;;;19.63;5.53;;;9.60;99.90;;;;;;4963645;28;20041;-76
2022/05/12 04:43:04;;;;;;;14.90;5.35;;;9.60;99.90;;;;;;4963680;28;20126;-76
2022/05/12 04:45:31;;;;;;;17.30;5.53;;;9.60;99.90;;;;;;4963963;28;20086;-74
2022/05/12 04:47:57;;;;;;;18.05;6.10;;;9.60;99.90;;;;;;4966557;28;20038;-74
2022/05/12 04:50:26;;;;;;;19.02;6.95;;;9.80;99.90;;;;;;4954443;28;20042;-74
2022/05/12 04:52:53;;;;;;;16.13;6.10;;;9.80;99.90;;;;;;4960832;28;20062;-74
2022/05/12 04:55:19;;;;;;;16.67;6.53;;;9.90;99.90;;;;;;4962562;28;20098;-74
2022/05/12 04:57:48;;;;;;;17.45;7.72;;;10.00;99.90;;;;;;4983072;28;20042;-75
2022/05/12 05:00:21;;;;;;;15.63;7.47;;;10.00;99.90;;;;;;4963760;28;20046;-75
2022/05/12 05:02:46;;;;;;;15.52;7.90;;;10.10;99.90;;;;;;4962772;28;20046;-74
2022/05/12 05:05:12;;;;;;;19.40;8.02;;;10.10;99.90;;;;;;4965081;28;20039;-74
2022/05/12 05:07:39;;;;;;;21.80;8.18;;;10.20;99.90;;;;;;4951402;28;20088;-74
2022/05/12 05:10:06;;;;;;;17.88;8.40;;;10.30;99.90;;;;;;4965123;28;20050;-75
2022/05/12 05:12:31;;;;;;;17.35;8.50;;;10.30;99.90;;;;;;4963970;28;20042;-76
2022/05/12 05:14:58;;;;;;;18.27;8.80;;;10.30;99.90;;;;;;4966176;28;20516;-76
2022/05/12 05:17:24;;;;;;;20.25;9.38;;;10.40;99.90;;;;;;4981358;28;20043;-75
2022/05/12 05:19:51;;;;;;;20.80;9.82;;;10.40;99.90;;;;;;4965500;28;20142;-76
2022/05/12 05:22:17;;;;;;;19.73;9.25;;;10.40;99.90;;;;;;4966937;28;20042;-76
2022/05/12 05:24:42;;;;;;;24.38;11.63;;;10.50;99.90;;;;;;4963924;28;20035;-75
2022/05/12 05:27:09;;;;;;;20.52;9.98;;;10.50;99.90;;;;;;4964356;28;20051;-75
2022/05/12 05:29:42;;;;;;;22.17;9.93;;;10.60;99.90;;;;;;4963447;28;20047;-76
2022/05/12 05:32:12;;;;;;;22.10;10.32;;;10.70;99.90;;;;;;4981072;28;20043;-75
2022/05/12 05:34:37;;;;;;;23.88;10.23;;;10.80;99.90;;;;;;4966243;28;20063;-75
2022/05/12 05:37:03;;;;;;;19.85;10.23;;;10.80;99.90;;;;;;4981714;28;20410;-75
2022/05/12 05:39:29;;;;;;;23.58;11.07;;;10.90;99.90;;;;;;4962448;28;20057;-75
2022/05/12 05:42:01;;;;;;;21.02;10.93;;;10.90;99.90;;;;;;4964826;28;20046;-75
2022/05/12 05:44:28;;;;;;;19.75;10.63;;;10.90;99.90;;;;;;4966256;28;20157;-75
2022/05/12 05:46:54;;;;;;;22.02;10.70;;;11.00;99.90;;;;;;4946382;28;20043;-75
2022/05/12 05:49:20;;;;;;;20.23;10.77;;;11.00;99.90;;;;;;4966178;28;20088;-75
2022/05/12 05:54:31;;;;;;;17.45;9.73;;;11.20;99.90;;;;;;4967156;28;20062;-75
2022/05/12 05:56:58;;;;;;;19.85;9.77;;;11.20;99.90;;;;;;4981275;28;20125;-76
2022/05/12 05:59:23;;;;;;;20.55;10.60;;;11.30;99.90;;;;;;4963927;28;20051;-76
2022/05/12 06:01:49;;;;;;;20.85;9.68;;;11.40;99.90;;;;;;4962132;28;20038;-75
2022/05/12 06:04:17;;;;;;;18.40;9.52;;;11.50;99.90;;;;;;4958290;28;20042;-75
2022/05/12 06:06:44;;;;;;;19.52;9.85;;;11.60;99.90;;;;;;4959349;28;20126;-75
2022/05/12 06:09:12;;;;;;;21.00;8.93;;;11.70;99.90;;;;;;4963012;28;20098;-76
2022/05/12 06:11:38;;;;;;;17.98;9.18;;;11.80;99.90;;;;;;4969705;28;20078;-76
2022/05/12 06:14:04;;;;;;;19.38;9.07;;;11.90;99.90;;;;;;4957744;28;20038;-76
2022/05/12 06:16:31;;;;;;;22.08;9.85;;;12.00;99.90;;;;;;4970334;28;20049;-76
2022/05/12 06:18:57;;;;;;;17.17;8.30;;;12.10;99.90;;;;;;4971837;28;20113;-76
2022/05/12 06:21:23;;;;;;;21.58;8.48;;;12.30;99.90;;;;;;4964367;28;20054;-76
2022/05/12 06:23:49;;;;;;;16.90;8.25;;;12.30;99.90;;;;;;4968826;28;20069;-76
2022/05/12 06:26:15;;;;;;;14.05;7.07;;;12.40;99.90;;;;;;4970174;28;20066;-77
2022/05/12 06:28:45;;;;;;;19.33;7.75;;;12.50;99.90;;;;;;4967464;28;20046;-76
2022/05/12 06:31:19;;;;;;;19.70;7.38;;;12.60;99.90;;;;;;4969797;28;20073;-76
2022/05/12 06:33:45;;;;;;;16.73;7.88;;;12.70;99.90;;;;;;4972847;28;20078;-76
2022/05/12 06:36:11;;;;;;;12.20;6.80;;;12.80;99.90;;;;;;4967525;28;20049;-76
2022/05/12 06:38:38;;;;;;;16.80;7.32;;;12.80;99.90;;;;;;4970007;28;20043;-75
2022/05/12 06:41:04;;;;;;;16.50;6.72;;;12.90;99.90;;;;;;4968424;28;20042;-75
2022/05/12 06:43:30;;;;;;;10.95;6.25;;;13.00;99.90;;;;;;4968958;28;20042;-75
2022/05/12 06:45:56;;;;;;;19.63;7.05;;;13.10;99.90;;;;;;4970438;28;20043;-76
2022/05/12 06:48:24;;;;;;;16.45;6.50;;;13.20;99.90;;;;;;4967198;28;20101;-76
2022/05/12 06:50:49;;;;;;;12.60;5.78;;;13.30;99.90;;;;;;4972509;28;20034;-76
2022/05/12 06:53:15;;;;;;;14.13;6.15;;;13.30;99.90;;;;;;4964785;28;20047;-76
2022/05/12 06:55:41;;;;;;;10.15;5.70;;;13.50;99.90;;;;;;4985845;28;20038;-76
2022/05/12 06:58:07;;;;;;;10.38;5.57;;;13.50;99.90;;;;;;4963366;28;20080;-76
2022/05/12 07:00:33;;;;;;;12.73;5.03;;;13.60;99.90;;;;;;4965515;28;20035;-76
2022/05/12 07:02:58;;;;;;;11.30;4.57;;;13.70;99.90;;;;;;4970476;28;20053;-76
2022/05/12 07:05:25;;;;;;;17.42;4.28;;;13.80;99.90;;;;;;4972205;28;20129;-75
2022/05/12 07:07:52;;;;;;;12.80;4.80;;;13.90;99.90;;;;;;4970569;28;20042;-75
2022/05/12 07:10:20;;;;;;;10.50;4.13;;;13.90;99.90;;;;;;4971066;28;20129;-76
2022/05/12 07:12:47;;;;;;;14.10;4.38;;;14.00;99.90;;;;;;4971602;28;20073;-76
2022/05/12 07:15:14;;;;;;;12.07;4.10;;;14.10;99.90;;;;;;4971526;28;20082;-76
2022/05/12 07:17:43;;;;;;;10.82;3.83;;;14.30;99.90;;;;;;4971625;28;20050;-76
2022/05/12 07:28:25;;;;;;;9.50;3.05;;;14.60;99.90;;;;;;4970018;28;20046;-76
2022/05/12 07:31:01;;;;;;;7.65;2.70;;;14.70;99.90;;;;;;4971122;28;20034;-76
2022/05/12 07:33:37;;;;;;;10.13;3.13;;;14.80;99.90;;;;;;4971604;28;20046;-76
2022/05/12 07:36:07;;;;;;;9.57;2.95;;;14.80;99.90;;;;;;4970618;28;20122;-76
2022/05/12 07:38:33;;;;;;;7.70;2.67;;;14.90;99.90;;;;;;4971265;28;20043;-76
2022/05/12 07:40:59;;;;;;;7.68;2.58;;;15.10;99.90;;;;;;4970547;28;20054;-75
2022/05/12 07:43:24;;;;;;;10.57;2.88;;;15.30;99.90;;;;;;4970860;28;20043;-76
2022/05/12 07:45:51;;;;;;;11.48;2.90;;;15.30;99.90;;;;;;4977680;28;20069;-78
2022/05/12 07:48:22;;;;;;;6.07;2.38;;;15.40;99.90;;;;;;4945992;28;20031;-77
2022/05/12 07:50:58;;;;;;;9.57;2.70;;;15.50;99.90;;;;;;4969000;28;20379;-75
2022/05/12 07:53:27;;;;;;;10.13;3.20;;;15.70;99.90;;;;;;4946619;28;20051;-75
2022/05/12 07:56:00;;;;;;;10.07;2.80;;;15.80;99.90;;;;;;4957871;28;20086;-75
2022/05/12 07:58:26;;;;;;;9.93;2.80;;;15.80;99.90;;;;;;4981644;28;20094;-76
2022/05/12 08:00:53;;;;;;;11.50;2.60;;;15.80;99.90;;;;;;4981892;28;20057;-77
2022/05/12 08:03:22;;;;;;;8.02;2.20;;;15.90;99.90;;;;;;4964763;28;20119;-75
2022/05/12 08:05:55;;;;;;;6.53;2.45;;;15.90;99.90;;;;;;4981605;28;20398;-75
2022/05/12 08:11:14;;;;;;;8.65;2.72;;;16.10;99.90;;;;;;4979127;28;20178;-75
2022/05/12 08:13:45;;;;;;;10.82;3.28;;;16.10;99.90;;;;;;4965403;28;20189;-75
2022/05/12 08:16:10;;;;;;;7.63;2.40;;;16.20;99.90;;;;;;4978051;28;20039;-77
2022/05/12 08:18:36;;;;;;;7.18;2.22;;;16.30;99.90;;;;;;4997957;28;20122;-76
2022/05/12 08:21:03;;;;;;;5.55;2.40;;;16.30;99.90;;;;;;4972997;28;20038;-75
2022/05/12 08:23:28;;;;;;;9.10;2.80;;;16.20;99.90;;;;;;4980152;28;20185;-77
2022/05/12 08:25:54;;;;;;;7.55;2.80;;;16.30;99.90;;;;;;4980217;28;20094;-76
2022/05/12 08:28:24;;;;;;;10.73;2.47;;;16.50;99.90;;;;;;4981389;28;20039;-75
2022/05/12 08:30:51;;;;;;;9.60;2.28;;;16.60;99.90;;;;;;4979927;28;20053;-75
2022/05/12 08:33:23;;;;;;;9.52;2.30;;;16.60;99.90;;;;;;4980201;28;20436;-77
2022/05/12 08:35:52;;;;;;;9.57;2.50;;;16.70;99.90;;;;;;4964253;28;20057;-76
2022/05/12 08:38:19;;;;;;;7.80;2.33;;;16.70;99.90;;;;;;4974233;28;20548;-76
2022/05/12 08:41:12;;;;;;;7.72;2.00;;;17.00;99.90;;;;;;4971631;28;20040;-76
2022/05/12 08:43:40;;;;;;;8.13;2.17;;;17.10;99.90;;;;;;4967923;28;20039;-76
2022/05/12 08:46:10;;;;;;;6.45;2.53;;;17.10;99.90;;;;;;4971444;28;20043;-76
2022/05/12 08:48:42;;;;;;;9.45;2.53;;;17.10;99.90;;;;;;4972639;28;20042;-76
2022/05/12 08:51:12;;;;;;;9.18;2.70;;;17.10;99.90;;;;;;4972205;28;20051;-76
2022/05/12 08:53:47;;;;;;;8.77;1.90;;;16.70;99.90;;;;;;4974044;28;20042;-76
2022/05/12 08:56:13;;;;;;;6.50;1.73;;;16.50;99.90;;;;;;4973904;28;20081;-76
2022/05/12 08:58:41;;;;;;;6.13;1.85;;;16.50;99.90;;;;;;4971555;28;20047;-76
2022/05/12 09:01:20;;;;;;;7.47;2.13;;;16.40;99.90;;;;;;4973363;28;20074;-76
2022/05/12 09:03:58;;;;;;;8.38;2.20;;;16.20;99.90;;;;;;4974205;28;20054;-75
2022/05/12 09:06:31;;;;;;;8.98;2.00;;;16.30;99.90;;;;;;4967278;28;20038;-75
2022/05/12 09:09:09;;;;;;;5.95;2.05;;;16.30;99.90;;;;;;4955850;28;20494;-75
2022/05/12 09:12:05;;;;;;;7.18;1.83;;;16.40;99.90;;;;;;4970711;28;20047;-76
2022/05/12 09:15:11;;;;;;;5.82;2.20;;;16.60;99.90;;;;;;4973263;28;20062;-76
2022/05/12 09:17:38;;;;;;;7.70;1.90;;;16.90;99.90;;;;;;4944385;28;20054;-74
2022/05/12 09:20:09;;;;;;;6.45;1.90;;;16.90;99.90;;;;;;4952597;28;20405;-75
2022/05/12 09:22:36;;;;;;;9.10;2.38;;;16.80;99.90;;;;;;4976980;28;20049;-74
2022/05/12 09:25:02;;;;;;;7.03;1.80;;;16.80;99.90;;;;;;4991537;28;20053;-74
2022/05/12 09:27:34;;;;;;;5.80;1.85;;;16.50;99.90;;;;;;4977057;28;20038;-74
2022/05/12 09:30:00;;;;;;;6.78;1.83;;;16.60;99.90;;;;;;4976664;28;20031;-74
2022/05/12 09:32:31;;;;;;;7.00;2.10;;;16.70;99.90;;;;;;4975842;28;20632;-74
2022/05/12 09:35:14;;;;;;;8.57;2.25;;;16.80;99.90;;;;;;4977484;28;20051;-74
2022/05/12 09:37:41;;;;;;;6.28;1.73;;;16.80;99.00;;;;;;4976816;28;20125;-74
2022/05/12 09:40:18;;;;;;;7.30;2.20;;;16.90;99.90;;;;;;4975597;28;20105;-74
2022/05/12 09:42:52;;;;;;;5.90;2.10;;;17.10;99.90;;;;;;4958665;28;20038;-74
2022/05/12 09:45:26;;;;;;;7.05;1.95;;;17.40;99.90;;;;;;4972838;28;20035;-74
2022/05/12 09:48:12;;;;;;;6.05;2.00;;;17.50;99.90;;;;;;4973910;28;20065;-74
2022/05/12 09:50:38;;;;;;;7.45;1.80;;;17.60;99.90;;;;;;4978204;28;20039;-75
2022/05/12 09:53:07;;;;;;;7.78;2.00;;;17.90;99.90;;;;;;4977798;28;20125;-74
2022/05/12 09:55:42;;;;;;;8.82;2.00;;;17.80;92.60;;;;;;4977032;28;20133;-74
2022/05/12 09:58:14;;;;;;;6.10;1.90;;;18.20;99.20;;;;;;4968059;28;20052;-74
2022/05/12 10:00:48;;;;;;;5.05;1.65;;;18.40;92.60;;;;;;4969901;28;20043;-75
2022/05/12 10:09:08;;;;;;;8.68;2.08;;;18.60;91.10;;;;;;4979827;28;20039;-75
2022/05/12 10:11:42;;;;;;;4.22;1.92;;;18.80;87.30;;;;;;4975272;28;20133;-75
2022/05/12 10:14:31;;;;;;;6.13;1.77;;;19.00;92.20;;;;;;4972553;28;20469;-75
2022/05/12 10:16:59;;;;;;;5.50;1.90;;;19.10;87.20;;;;;;4976975;28;20047;-74
2022/05/12 10:19:27;;;;;;;5.78;1.83;;;19.00;88.60;;;;;;4971182;28;20101;-75
2022/05/12 10:22:12;;;;;;;6.32;1.90;;;19.20;87.50;;;;;;4977791;28;20405;-75
2022/05/12 10:25:06;;;;;;;8.13;2.10;;;19.30;82.70;;;;;;4977808;28;20132;-78
2022/05/12 10:27:46;;;;;;;8.52;1.80;;;19.50;80.90;;;;;;4974497;28;20039;-74
2022/05/12 10:30:35;;;;;;;6.20;1.83;;;19.00;78.90;;;;;;4967819;28;20046;-76
2022/05/12 10:33:45;;;;;;;11.48;1.75;;;19.10;78.00;;;;;;4971611;28;20047;-75
2022/05/12 10:36:48;;;;;;;6.65;1.67;;;19.20;77.20;;;;;;4949428;28;20074;-75
2022/05/12 10:39:34;;;;;;;8.13;1.88;;;18.70;72.80;;;;;;4981511;28;20050;-76
2022/05/12 10:42:04;;;;;;;7.05;1.52;;;19.10;77.60;;;;;;4962042;28;20043;-75
2022/05/12 10:44:59;;;;;;;5.93;1.63;;;19.30;75.90;;;;;;4964571;28;20497;-75
2022/05/12 10:47:59;;;;;;;7.00;1.50;;;19.70;79.30;;;;;;4972589;28;20058;-75
2022/05/12 10:50:49;;;;;;;5.15;1.30;;;19.80;69.20;;;;;;4978366;28;20508;-76
2022/05/12 10:53:42;;;;;;;3.45;1.30;;;19.80;66.40;;;;;;4958679;28;20047;-75
2022/05/12 10:56:08;;;;;;;4.43;1.27;;;19.90;63.30;;;;;;4970475;28;20038;-76
2022/05/12 10:58:39;;;;;;;5.85;1.60;;;20.20;65.10;;;;;;4971199;28;20038;-76
2022/05/12 11:01:30;;;;;;;4.90;1.50;;;20.40;65.60;;;;;;4969246;28;20533;-75
2022/05/12 11:04:09;;;;;;;5.97;1.25;;;20.50;63.10;;;;;;4969518;28;20045;-76
2022/05/12 11:07:04;;;;;;;3.92;1.02;;;20.60;66.20;;;;;;4969097;23;20039;-75
2022/05/12 11:09:35;;;;;;;7.35;1.50;;;20.80;57.90;;;;;;4985122;28;20080;-75
2022/05/12 11:12:31;;;;;;;5.30;1.38;;;20.80;60.20;;;;;;4973241;28;20038;-75
2022/05/12 11:15:15;;;;;;;3.35;1.45;;;20.40;58.30;;;;;;4974775;28;20038;-75
2022/05/12 11:17:56;;;;;;;7.43;1.48;;;20.60;59.30;;;;;;4975026;28;20038;-75
2022/05/12 11:20:25;;;;;;;6.63;1.63;;;20.30;56.40;;;;;;4974351;28;20034;-76
2022/05/12 11:23:00;;;;;;;4.55;1.40;;;20.20;61.90;;;;;;4974558;28;20035;-75
2022/05/12 11:25:37;;;;;;;4.88;1.38;;;20.30;60.10;;;;;;4991141;28;20050;-75
2022/05/12 11:31:15;;;;;;;3.30;1.10;;;21.30;61.90;;;;;;4984123;28;20038;-76
2022/05/12 11:33:46;;;;;;;5.78;1.40;;;21.30;57.50;;;;;;4977279;28;20448;-76
2022/05/12 11:36:12;;;;;;;4.38;1.45;;;21.10;56.10;;;;;;4974663;28;20587;-77
2022/05/12 11:38:42;;;;;;;2.38;1.08;;;21.10;56.60;;;;;;4974200;28;20133;-75
2022/05/12 11:41:35;;;;;;;4.55;1.50;;;21.00;57.50;;;;;;4972405;28;20063;-77
2022/05/12 11:44:33;;;;;;;3.33;1.25;;;20.80;56.20;;;;;;4972908;28;20077;-77
2022/05/12 11:47:11;;;;;;;3.05;1.15;;;20.90;61.70;;;;;;4974895;28;20044;-77
2022/05/12 11:49:43;;;;;;;4.38;1.20;;;20.80;52.60;;;;;;4970632;28;20035;-77
2022/05/12 11:52:26;;;;;;;3.42;1.20;;;20.70;55.50;;;;;;4980692;28;20167;-76
2022/05/12 11:55:20;;;;;;;2.33;0.90;;;20.50;52.60;;;;;;4971377;28;20122;-74
2022/05/12 11:58:06;;;;;;;5.65;1.17;;;20.60;52.50;;;;;;4955946;28;20054;-76
2022/05/12 12:00:34;;;;;;;5.97;1.40;;;20.50;52.70;;;;;;4971008;28;20042;-77
2022/05/12 12:03:18;;;;;;;5.55;1.20;;;20.50;55.50;;;;;;4973088;28;20034;-76
2022/05/12 12:05:50;;;;;;;7.80;1.38;;;20.80;56.10;;;;;;4974386;28;20408;-76
2022/05/12 12:08:31;;;;;;;5.38;1.10;;;21.00;51.50;;;;;;4972902;28;20030;-77
2022/05/12 12:11:18;;;;;;;6.57;1.00;;;20.80;49.80;;;;;;4973957;28;20038;-77
2022/05/12 12:13:45;;;;;;;3.58;0.75;;;20.80;47.40;;;;;;4945022;28;20461;-77
2022/05/12 12:16:21;;;;;;;3.25;0.80;;;21.00;51.60;;;;;;4973231;28;20125;-77
2022/05/12 12:18:57;;;;;;;2.63;0.90;;;21.30;50.70;;;;;;4974681;28;20428;-77
2022/05/12 12:21:37;;;;;;;3.05;1.00;;;21.60;49.80;;;;;;4968648;28;20122;-77
2022/05/12 12:24:18;;;;;;;4.55;1.00;;;21.90;50.30;;;;;;4968933;28;20054;-77
2022/05/12 12:26:45;;;;;;;3.83;1.00;;;22.10;48.50;;;;;;4975021;28;20115;-77
2022/05/12 12:29:20;;;;;;;3.13;0.90;;;21.80;47.80;;;;;;4973382;28;20038;-77
2022/05/12 12:31:49;;;;;;;3.45;0.98;;;21.30;46.30;;;;;;4976807;28;20093;-77
2022/05/12 12:34:21;;;;;;;3.50;1.00;;;21.20;49.60;;;;;;4972518;28;20520;-77
2022/05/12 12:36:47;;;;;;;3.35;0.98;;;21.40;49.10;;;;;;4974169;28;20042;-77
2022/05/12 12:39:28;;;;;;;2.33;0.98;;;21.60;50.90;;;;;;4972751;28;20040;-77
2022/05/12 12:42:09;;;;;;;3.75;1.17;;;21.60;50.80;;;;;;4959825;28;20039;-77
2022/05/12 12:44:42;;;;;;;6.57;1.10;;;21.70;50.80;;;;;;4975393;28;20043;-76
2022/05/12 12:47:25;;;;;;;3.70;1.20;;;21.60;49.60;;;;;;4977528;28;20120;-77
2022/05/12 12:50:04;;;;;;;2.85;1.10;;;21.80;51.90;;;;;;4977164;28;20129;-76
2022/05/12 12:52:30;;;;;;;5.63;1.23;;;21.80;50.40;;;;;;4975818;28;20405;-75
2022/05/12 12:57:47;;;;;;;3.75;1.10;;;21.80;50.70;;;;;;4976217;28;20106;-77
2022/05/12 13:00:35;;;;;;;2.15;0.80;;;22.00;49.30;;;;;;4977069;28;20070;-77
2022/05/12 13:03:08;;;;;;;4.40;1.30;;;22.00;48.20;;;;;;4977594;28;20049;-77
2022/05/12 13:05:36;;;;;;;3.58;1.20;;;22.20;48.60;;;;;;4976595;28;20085;-75
2022/05/12 13:08:28;;;;;;;4.38;1.30;;;22.20;48.40;;;;;;4991524;28;20042;-76
2022/05/12 13:11:03;;;;;;;3.83;1.30;;;22.20;48.90;;;;;;4976993;28;20062;-76
2022/05/12 13:13:29;;;;;;;3.28;1.00;;;22.20;46.90;;;;;;4979007;28;20477;-76
2022/05/12 13:16:03;;;;;;;5.97;1.15;;;21.80;46.50;;;;;;4976806;28;20084;-76
2022/05/12 13:18:45;;;;;;;3.58;1.10;;;21.90;45.50;;;;;;4979213;28;20492;-76
2022/05/12 13:21:24;;;;;;;5.88;1.50;;;21.60;46.60;;;;;;4960377;28;20560;-76
2022/05/12 13:24:05;;;;;;;4.95;1.33;;;21.60;50.80;;;;;;4975276;28;20504;-76
2022/05/12 13:26:31;;;;;;;4.78;1.27;;;21.80;49.50;;;;;;4970503;28;20488;-76
2022/05/12 13:28:58;;;;;;;4.78;1.35;;;21.80;49.40;;;;;;4976704;28;20492;-76
2022/05/12 13:31:35;;;;;;;5.57;1.45;;;21.40;47.10;;;;;;4975789;28;20038;-76
2022/05/12 13:34:13;;;;;;;4.18;1.20;;;21.30;49.60;;;;;;4975525;28;20038;-77